sensor_id;sensor_type;location;lat;lon;timestamp;pressure;altitude;pressure_sealevel;temperature;humidity
35694;BME280;21812;55.536;37.664;2023-04-06T00:01:55;100412.44;;;13.55;44.94
35694;BME280;21812;55.536;37.664;2023-04-06T00:04:20;100407.25;;;13.32;44.57
35694;BME280;21812;55.536;37.664;2023-04-06T00:06:46;100402.97;;;13.37;44.78
35694;BME280;21812;55.536;37.664;2023-04-06T00:09:12;100396.00;;;13.21;44.89
35694;BME280;21812;55.536;37.664;2023-04-06T00:11:37;100408.63;;;13.27;44.97
35694;BME280;21812;55.536;37.664;2023-04-06T00:14:03;100406.22;;;13.33;44.58
35694;BME280;21812;55.536;37.664;2023-04-06T00:16:29;100409.75;;;12.97;44.28
35694;BME280;21812;55.536;37.664;2023-04-06T00:18:54;100412.84;;;12.64;44.59
35694;BME280;21812;55.536;37.664;2023-04-06T00:21:20;100411.44;;;12.83;45.32
35694;BME280;21812;55.536;37.664;2023-04-06T00:23:46;100414.06;;;12.61;46.93
35694;BME280;21812;55.536;37.664;2023-04-06T00:26:12;100409.31;;;12.78;45.42
35694;BME280;21812;55.536;37.664;2023-04-06T00:28:41;100409.81;;;12.37;45.73
35694;BME280;21812;55.536;37.664;2023-04-06T00:31:07;100407.97;;;12.52;47.14
35694;BME280;21812;55.536;37.664;2023-04-06T00:33:32;100409.16;;;12.35;46.80
35694;BME280;21812;55.536;37.664;2023-04-06T00:35:58;100406.00;;;12.76;47.10
35694;BME280;21812;55.536;37.664;2023-04-06T00:38:24;100404.34;;;12.75;45.01
35694;BME280;21812;55.536;37.664;2023-04-06T00:40:50;100407.75;;;12.84;46.04
35694;BME280;21812;55.536;37.664;2023-04-06T00:43:15;100412.38;;;12.60;45.99
35694;BME280;21812;55.536;37.664;2023-04-06T00:45:41;100406.13;;;12.68;46.52
35694;BME280;21812;55.536;37.664;2023-04-06T00:48:08;100416.09;;;12.44;45.91
35694;BME280;21812;55.536;37.664;2023-04-06T00:50:34;100405.19;;;12.16;46.28
35694;BME280;21812;55.536;37.664;2023-04-06T00:53:00;100413.94;;;11.95;47.89
35694;BME280;21812;55.536;37.664;2023-04-06T00:55:28;100417.41;;;11.81;46.72
35694;BME280;21812;55.536;37.664;2023-04-06T00:57:54;100405.91;;;11.95;48.52
35694;BME280;21812;55.536;37.664;2023-04-06T01:00:23;100408.63;;;12.10;47.95
35694;BME280;21812;55.536;37.664;2023-04-06T01:02:54;100413.59;;;11.98;47.67
35694;BME280;21812;55.536;37.664;2023-04-06T01:05:23;100406.31;;;11.84;47.81
35694;BME280;21812;55.536;37.664;2023-04-06T01:07:53;100406.97;;;11.86;48.61
35694;BME280;21812;55.536;37.664;2023-04-06T01:10:26;100410.09;;;12.27;48.55
35694;BME280;21812;55.536;37.664;2023-04-06T01:12:59;100401.31;;;12.04;48.43
35694;BME280;21812;55.536;37.664;2023-04-06T01:15:43;100395.34;;;11.79;48.72
35694;BME280;21812;55.536;37.664;2023-04-06T01:18:13;100399.44;;;11.66;48.42
35694;BME280;21812;55.536;37.664;2023-04-06T01:20:46;100398.34;;;11.99;48.85
35694;BME280;21812;55.536;37.664;2023-04-06T01:23:12;100401.78;;;11.69;48.09
35694;BME280;21812;55.536;37.664;2023-04-06T01:25:44;100408.44;;;11.73;49.75
35694;BME280;21812;55.536;37.664;2023-04-06T01:28:11;100401.34;;;11.20;50.27
35694;BME280;21812;55.536;37.664;2023-04-06T01:31:03;100407.84;;;11.40;49.99
35694;BME280;21812;55.536;37.664;2023-04-06T01:33:45;100398.94;;;11.02;48.55
35694;BME280;21812;55.536;37.664;2023-04-06T01:36:16;100402.81;;;11.22;50.22
35694;BME280;21812;55.536;37.664;2023-04-06T01:38:44;100389.13;;;11.63;50.32
35694;BME280;21812;55.536;37.664;2023-04-06T01:41:10;100399.66;;;11.80;48.61
35694;BME280;21812;55.536;37.664;2023-04-06T01:43:47;100370.16;;;11.73;48.01
35694;BME280;21812;55.536;37.664;2023-04-06T01:46:13;100398.72;;;11.96;47.33
35694;BME280;21812;55.536;37.664;2023-04-06T01:48:42;100399.94;;;11.70;47.25
35694;BME280;21812;55.536;37.664;2023-04-06T01:51:22;100406.00;;;11.64;48.18
35694;BME280;21812;55.536;37.664;2023-04-06T01:53:57;100395.25;;;11.49;49.30
35694;BME280;21812;55.536;37.664;2023-04-06T01:56:31;100405.66;;;11.44;47.80
35694;BME280;21812;55.536;37.664;2023-04-06T01:59:05;100407.44;;;11.28;48.65
35694;BME280;21812;55.536;37.664;2023-04-06T02:01:37;100413.41;;;11.39;50.05
35694;BME280;21812;55.536;37.664;2023-04-06T02:04:03;100411.47;;;11.24;50.91
35694;BME280;21812;55.536;37.664;2023-04-06T02:06:29;100413.81;;;11.27;49.41
35694;BME280;21812;55.536;37.664;2023-04-06T02:08:55;100413.16;;;11.25;49.73
35694;BME280;21812;55.536;37.664;2023-04-06T02:11:21;100416.81;;;11.24;49.35
35694;BME280;21812;55.536;37.664;2023-04-06T02:13:51;100421.84;;;11.27;50.07
35694;BME280;21812;55.536;37.664;2023-04-06T02:16:37;100431.38;;;10.90;51.03
35694;BME280;21812;55.536;37.664;2023-04-06T02:19:03;100432.44;;;10.81;49.96
35694;BME280;21812;55.536;37.664;2023-04-06T02:21:31;100437.88;;;10.56;51.72
35694;BME280;21812;55.536;37.664;2023-04-06T02:23:57;100432.34;;;10.58;50.06
35694;BME280;21812;55.536;37.664;2023-04-06T02:26:23;100442.63;;;10.22;50.72
35694;BME280;21812;55.536;37.664;2023-04-06T02:28:50;100437.94;;;10.24;52.34
35694;BME280;21812;55.536;37.664;2023-04-06T02:31:16;100442.25;;;10.41;51.82
35694;BME280;21812;55.536;37.664;2023-04-06T02:33:43;100439.88;;;10.63;50.12
35694;BME280;21812;55.536;37.664;2023-04-06T02:36:10;100440.94;;;10.85;50.45
35694;BME280;21812;55.536;37.664;2023-04-06T02:38:36;100445.22;;;10.63;50.19
35694;BME280;21812;55.536;37.664;2023-04-06T02:41:02;100446.97;;;10.23;50.71
35694;BME280;21812;55.536;37.664;2023-04-06T02:43:28;100445.13;;;10.40;51.84
35694;BME280;21812;55.536;37.664;2023-04-06T02:46:05;100447.81;;;10.79;50.86
35694;BME280;21812;55.536;37.664;2023-04-06T02:48:34;100447.34;;;11.07;50.46
35694;BME280;21812;55.536;37.664;2023-04-06T02:51:02;100443.75;;;11.46;50.10
35694;BME280;21812;55.536;37.664;2023-04-06T02:53:30;100443.91;;;11.21;48.12
35694;BME280;21812;55.536;37.664;2023-04-06T02:55:56;100448.66;;;11.11;50.51
35694;BME280;21812;55.536;37.664;2023-04-06T02:58:27;100452.69;;;11.07;49.88
35694;BME280;21812;55.536;37.664;2023-04-06T03:00:56;100452.53;;;11.31;49.87
35694;BME280;21812;55.536;37.664;2023-04-06T03:03:21;100454.56;;;11.29;48.58
35694;BME280;21812;55.536;37.664;2023-04-06T03:05:48;100454.75;;;11.51;48.37
35694;BME280;21812;55.536;37.664;2023-04-06T03:08:15;100458.91;;;11.53;48.90
35694;BME280;21812;55.536;37.664;2023-04-06T03:10:43;100462.22;;;11.55;49.65
35694;BME280;21812;55.536;37.664;2023-04-06T03:13:10;100456.47;;;11.67;48.89
35694;BME280;21812;55.536;37.664;2023-04-06T03:15:45;100452.66;;;11.61;47.86
35694;BME280;21812;55.536;37.664;2023-04-06T03:18:15;100464.69;;;11.11;48.37
35694;BME280;21812;55.536;37.664;2023-04-06T03:20:45;100470.16;;;10.86;50.16
35694;BME280;21812;55.536;37.664;2023-04-06T03:23:13;100471.50;;;10.82;49.41
35694;BME280;21812;55.536;37.664;2023-04-06T03:25:41;100474.88;;;10.76;48.27
35694;BME280;21812;55.536;37.664;2023-04-06T03:28:09;100461.09;;;10.95;48.38
35694;BME280;21812;55.536;37.664;2023-04-06T03:30:42;100473.50;;;11.20;47.99
35694;BME280;21812;55.536;37.664;2023-04-06T03:33:08;100470.31;;;11.70;49.26
35694;BME280;21812;55.536;37.664;2023-04-06T03:35:42;100473.50;;;11.89;47.74
35694;BME280;21812;55.536;37.664;2023-04-06T03:38:08;100474.25;;;12.06;47.11
35694;BME280;21812;55.536;37.664;2023-04-06T03:40:34;100470.06;;;11.80;48.71
35694;BME280;21812;55.536;37.664;2023-04-06T03:43:01;100475.22;;;11.90;50.44
35694;BME280;21812;55.536;37.664;2023-04-06T03:45:27;100471.66;;;11.98;50.20
35694;BME280;21812;55.536;37.664;2023-04-06T03:47:53;100472.50;;;12.13;50.29
35694;BME280;21812;55.536;37.664;2023-04-06T03:50:19;100476.78;;;12.22;50.20
35694;BME280;21812;55.536;37.664;2023-04-06T03:52:45;100488.56;;;12.28;47.08
35694;BME280;21812;55.536;37.664;2023-04-06T03:55:10;100479.50;;;12.14;48.28
35694;BME280;21812;55.536;37.664;2023-04-06T03:57:36;100489.75;;;12.10;46.68
35694;BME280;21812;55.536;37.664;2023-04-06T04:00:03;100491.97;;;12.22;51.86
35694;BME280;21812;55.536;37.664;2023-04-06T04:02:38;100496.91;;;11.95;46.96
35694;BME280;21812;55.536;37.664;2023-04-06T04:05:05;100493.00;;;11.74;46.98
35694;BME280;21812;55.536;37.664;2023-04-06T04:07:31;100496.78;;;11.65;49.59
35694;BME280;21812;55.536;37.664;2023-04-06T04:09:57;100497.53;;;11.74;49.29
35694;BME280;21812;55.536;37.664;2023-04-06T04:12:22;100498.28;;;11.91;51.46
35694;BME280;21812;55.536;37.664;2023-04-06T04:14:48;100492.19;;;11.74;49.36
35694;BME280;21812;55.536;37.664;2023-04-06T04:17:14;100497.88;;;11.48;50.65
35694;BME280;21812;55.536;37.664;2023-04-06T04:19:39;100504.09;;;11.48;51.04
35694;BME280;21812;55.536;37.664;2023-04-06T04:22:05;100501.34;;;11.80;51.53
35694;BME280;21812;55.536;37.664;2023-04-06T04:24:35;100499.97;;;11.92;49.30
35694;BME280;21812;55.536;37.664;2023-04-06T04:27:01;100499.81;;;12.08;49.64
35694;BME280;21812;55.536;37.664;2023-04-06T04:29:29;100499.47;;;11.88;49.80
35694;BME280;21812;55.536;37.664;2023-04-06T04:32:00;100496.25;;;11.93;47.22
35694;BME280;21812;55.536;37.664;2023-04-06T04:34:26;100500.03;;;11.76;48.84
35694;BME280;21812;55.536;37.664;2023-04-06T04:36:52;100499.88;;;11.54;48.58
35694;BME280;21812;55.536;37.664;2023-04-06T04:39:26;100505.75;;;11.72;49.87
35694;BME280;21812;55.536;37.664;2023-04-06T04:41:59;100500.88;;;11.76;50.09
35694;BME280;21812;55.536;37.664;2023-04-06T04:44:26;100497.56;;;11.97;48.82
35694;BME280;21812;55.536;37.664;2023-04-06T04:46:53;100506.78;;;11.95;47.80
35694;BME280;21812;55.536;37.664;2023-04-06T04:49:24;100499.47;;;12.11;49.63
35694;BME280;21812;55.536;37.664;2023-04-06T04:51:50;100499.25;;;11.98;48.81
35694;BME280;21812;55.536;37.664;2023-04-06T04:54:32;100499.97;;;11.92;46.52
35694;BME280;21812;55.536;37.664;2023-04-06T04:56:58;100503.72;;;11.74;47.85
35694;BME280;21812;55.536;37.664;2023-04-06T04:59:42;100480.72;;;11.88;49.55
35694;BME280;21812;55.536;37.664;2023-04-06T05:02:16;100497.50;;;12.43;48.21
35694;BME280;21812;55.536;37.664;2023-04-06T05:04:52;100508.56;;;12.40;47.60
35694;BME280;21812;55.536;37.664;2023-04-06T05:07:22;100509.59;;;12.69;46.94
35694;BME280;21812;55.536;37.664;2023-04-06T05:09:49;100509.13;;;12.80;46.95
35694;BME280;21812;55.536;37.664;2023-04-06T05:12:18;100503.69;;;12.59;46.38
35694;BME280;21812;55.536;37.664;2023-04-06T05:14:54;100509.38;;;12.41;45.27
35694;BME280;21812;55.536;37.664;2023-04-06T05:17:21;100507.47;;;12.49;47.24
35694;BME280;21812;55.536;37.664;2023-04-06T05:19:49;100493.28;;;12.11;45.59
35694;BME280;21812;55.536;37.664;2023-04-06T05:22:21;100511.81;;;12.80;53.00
35694;BME280;21812;55.536;37.664;2023-04-06T05:24:55;100515.56;;;13.16;47.76
35694;BME280;21812;55.536;37.664;2023-04-06T05:27:20;100509.06;;;13.25;55.76
35694;BME280;21812;55.536;37.664;2023-04-06T05:29:46;100500.84;;;13.41;52.13
35694;BME280;21812;55.536;37.664;2023-04-06T05:32:13;100502.78;;;13.33;50.29
35694;BME280;21812;55.536;37.664;2023-04-06T05:34:40;100499.69;;;13.51;49.61
35694;BME280;21812;55.536;37.664;2023-04-06T05:37:06;100509.47;;;13.07;44.56
35694;BME280;21812;55.536;37.664;2023-04-06T05:39:32;100510.53;;;12.91;48.67
35694;BME280;21812;55.536;37.664;2023-04-06T05:42:03;100514.84;;;13.07;50.80
35694;BME280;21812;55.536;37.664;2023-04-06T05:44:44;100507.91;;;12.98;44.89
35694;BME280;21812;55.536;37.664;2023-04-06T05:47:13;100509.06;;;13.25;48.11
35694;BME280;21812;55.536;37.664;2023-04-06T05:49:44;100501.91;;;12.96;44.02
35694;BME280;21812;55.536;37.664;2023-04-06T05:52:16;100507.41;;;12.20;44.74
35694;BME280;21812;55.536;37.664;2023-04-06T05:54:45;100512.22;;;11.55;46.30
35694;BME280;21812;55.536;37.664;2023-04-06T05:57:10;100516.13;;;11.13;47.42
35694;BME280;21812;55.536;37.664;2023-04-06T05:59:37;100521.81;;;10.70;48.39
35694;BME280;21812;55.536;37.664;2023-04-06T06:02:03;100524.88;;;10.26;49.42
35694;BME280;21812;55.536;37.664;2023-04-06T06:04:32;100530.03;;;10.03;50.01
35694;BME280;21812;55.536;37.664;2023-04-06T06:06:58;100518.88;;;10.00;50.37
35694;BME280;21812;55.536;37.664;2023-04-06T06:09:30;100520.38;;;9.94;50.62
35694;BME280;21812;55.536;37.664;2023-04-06T06:12:05;100522.88;;;9.79;51.00
35694;BME280;21812;55.536;37.664;2023-04-06T06:14:31;100518.00;;;9.74;51.24
35694;BME280;21812;55.536;37.664;2023-04-06T06:16:57;100512.03;;;9.81;51.36
35694;BME280;21812;55.536;37.664;2023-04-06T06:19:22;100508.19;;;9.83;51.25
35694;BME280;21812;55.536;37.664;2023-04-06T06:21:50;100511.19;;;9.88;51.32
35694;BME280;21812;55.536;37.664;2023-04-06T06:24:16;100509.19;;;9.90;51.02
35694;BME280;21812;55.536;37.664;2023-04-06T06:26:42;100506.38;;;9.92;51.27
35694;BME280;21812;55.536;37.664;2023-04-06T06:29:10;100511.53;;;9.85;51.12
35694;BME280;21812;55.536;37.664;2023-04-06T06:31:38;100513.88;;;9.88;51.58
35694;BME280;21812;55.536;37.664;2023-04-06T06:34:04;100509.84;;;10.01;51.51
35694;BME280;21812;55.536;37.664;2023-04-06T06:36:31;100508.03;;;9.93;51.22
35694;BME280;21812;55.536;37.664;2023-04-06T06:38:58;100515.69;;;9.88;51.48
35694;BME280;21812;55.536;37.664;2023-04-06T06:41:25;100501.53;;;9.79;51.89
35694;BME280;21812;55.536;37.664;2023-04-06T06:43:52;100510.50;;;9.78;51.93
35694;BME280;21812;55.536;37.664;2023-04-06T06:46:18;100505.19;;;9.78;51.90
35694;BME280;21812;55.536;37.664;2023-04-06T06:48:43;100514.81;;;9.63;52.06
35694;BME280;21812;55.536;37.664;2023-04-06T06:51:09;100515.50;;;9.56;52.27
35694;BME280;21812;55.536;37.664;2023-04-06T06:53:39;100512.97;;;9.55;52.13
35694;BME280;21812;55.536;37.664;2023-04-06T06:56:05;100512.81;;;9.56;52.45
35694;BME280;21812;55.536;37.664;2023-04-06T06:58:31;100515.34;;;9.58;52.33
35694;BME280;21812;55.536;37.664;2023-04-06T07:01:00;100500.97;;;9.51;53.02
35694;BME280;21812;55.536;37.664;2023-04-06T07:03:27;100511.84;;;9.66;52.54
35694;BME280;21812;55.536;37.664;2023-04-06T07:05:54;100510.00;;;9.74;52.44
35694;BME280;21812;55.536;37.664;2023-04-06T07:08:22;100491.69;;;9.79;52.38
35694;BME280;21812;55.536;37.664;2023-04-06T07:10:50;100501.03;;;10.00;51.99
35694;BME280;21812;55.536;37.664;2023-04-06T07:13:18;100517.50;;;10.20;51.60
35694;BME280;21812;55.536;37.664;2023-04-06T07:15:49;100515.19;;;10.33;52.26
35694;BME280;21812;55.536;37.664;2023-04-06T07:18:16;100514.69;;;10.38;51.23
35694;BME280;21812;55.536;37.664;2023-04-06T07:20:42;100513.19;;;10.44;51.22
35694;BME280;21812;55.536;37.664;2023-04-06T07:23:08;100520.00;;;10.54;51.04
35694;BME280;21812;55.536;37.664;2023-04-06T07:25:34;100515.81;;;10.60;50.90
35694;BME280;21812;55.536;37.664;2023-04-06T07:28:02;100511.97;;;10.63;50.51
35694;BME280;21812;55.536;37.664;2023-04-06T07:30:28;100511.94;;;10.71;50.38
35694;BME280;21812;55.536;37.664;2023-04-06T07:32:54;100505.63;;;10.72;50.04
35694;BME280;21812;55.536;37.664;2023-04-06T07:35:25;100512.94;;;10.70;50.12
35694;BME280;21812;55.536;37.664;2023-04-06T07:37:57;100505.97;;;10.61;49.82
35694;BME280;21812;55.536;37.664;2023-04-06T07:40:23;100514.28;;;10.74;50.16
35694;BME280;21812;55.536;37.664;2023-04-06T07:42:50;100515.25;;;10.89;50.05
35694;BME280;21812;55.536;37.664;2023-04-06T07:45:16;100516.19;;;10.96;49.94
35694;BME280;21812;55.536;37.664;2023-04-06T07:47:42;100514.22;;;10.99;49.72
35694;BME280;21812;55.536;37.664;2023-04-06T07:50:09;100502.44;;;11.08;50.21
35694;BME280;21812;55.536;37.664;2023-04-06T07:52:36;100512.31;;;11.07;49.32
35694;BME280;21812;55.536;37.664;2023-04-06T07:55:02;100511.59;;;11.13;49.42
35694;BME280;21812;55.536;37.664;2023-04-06T07:57:28;100505.94;;;11.17;48.77
35694;BME280;21812;55.536;37.664;2023-04-06T07:59:54;100507.91;;;11.23;48.83
35694;BME280;21812;55.536;37.664;2023-04-06T08:02:19;100507.00;;;11.30;48.71
35694;BME280;21812;55.536;37.664;2023-04-06T08:04:45;100510.53;;;11.31;48.50
35694;BME280;21812;55.536;37.664;2023-04-06T08:07:11;100504.78;;;11.42;49.34
35694;BME280;21812;55.536;37.664;2023-04-06T08:09:37;100503.22;;;11.48;48.54
35694;BME280;21812;55.536;37.664;2023-04-06T08:12:03;100503.53;;;11.53;48.31
35694;BME280;21812;55.536;37.664;2023-04-06T08:14:29;100503.97;;;11.65;48.34
35694;BME280;21812;55.536;37.664;2023-04-06T08:16:55;100503.06;;;11.72;48.44
35694;BME280;21812;55.536;37.664;2023-04-06T08:19:20;100496.81;;;11.80;47.62
35694;BME280;21812;55.536;37.664;2023-04-06T08:21:46;100497.78;;;11.87;48.09
35694;BME280;21812;55.536;37.664;2023-04-06T08:24:13;100506.13;;;11.92;47.39
35694;BME280;21812;55.536;37.664;2023-04-06T08:26:39;100500.06;;;11.99;46.95
35694;BME280;21812;55.536;37.664;2023-04-06T08:29:05;100492.50;;;12.02;46.92
35694;BME280;21812;55.536;37.664;2023-04-06T08:31:36;100491.13;;;12.06;46.79
35694;BME280;21812;55.536;37.664;2023-04-06T08:34:03;100497.78;;;12.10;46.49
35694;BME280;21812;55.536;37.664;2023-04-06T08:36:30;100509.22;;;12.04;46.12
35694;BME280;21812;55.536;37.664;2023-04-06T08:38:56;100492.44;;;12.10;47.09
35694;BME280;21812;55.536;37.664;2023-04-06T08:41:22;100494.31;;;12.25;46.64
35694;BME280;21812;55.536;37.664;2023-04-06T08:46:20;100496.53;;;12.36;46.50
35694;BME280;21812;55.536;37.664;2023-04-06T08:48:47;100493.13;;;12.42;45.85
35694;BME280;21812;55.536;37.664;2023-04-06T08:51:15;100483.63;;;12.55;46.27
35694;BME280;21812;55.536;37.664;2023-04-06T08:53:42;100491.88;;;12.68;46.07
35694;BME280;21812;55.536;37.664;2023-04-06T08:56:09;100485.84;;;12.66;45.53
35694;BME280;21812;55.536;37.664;2023-04-06T08:58:37;100491.75;;;12.76;46.02
35694;BME280;21812;55.536;37.664;2023-04-06T09:01:10;100493.13;;;12.87;46.25
35694;BME280;21812;55.536;37.664;2023-04-06T09:03:38;100465.50;;;12.71;44.81
35694;BME280;21812;55.536;37.664;2023-04-06T09:06:07;100482.41;;;12.87;45.24
35694;BME280;21812;55.536;37.664;2023-04-06T09:08:34;100483.25;;;12.87;44.93
35694;BME280;21812;55.536;37.664;2023-04-06T09:11:03;100488.50;;;12.96;45.17
35694;BME280;21812;55.536;37.664;2023-04-06T09:13:29;100474.81;;;13.05;44.93
35694;BME280;21812;55.536;37.664;2023-04-06T09:16:03;100464.91;;;13.06;44.24
35694;BME280;21812;55.536;37.664;2023-04-06T09:18:32;100475.31;;;13.30;45.16
35694;BME280;21812;55.536;37.664;2023-04-06T09:21:05;100440.09;;;13.19;44.52
35694;BME280;21812;55.536;37.664;2023-04-06T09:23:32;100473.28;;;13.33;43.66
35694;BME280;21812;55.536;37.664;2023-04-06T09:26:15;100442.59;;;13.35;43.78
35694;BME280;21812;55.536;37.664;2023-04-06T09:28:52;100440.53;;;13.37;43.48
35694;BME280;21812;55.536;37.664;2023-04-06T09:31:29;100469.69;;;13.62;43.52
35694;BME280;21812;55.536;37.664;2023-04-06T09:33:56;100438.16;;;13.49;43.39
35694;BME280;21812;55.536;37.664;2023-04-06T09:36:32;100467.94;;;13.76;43.56
35694;BME280;21812;55.536;37.664;2023-04-06T09:39:02;100474.75;;;13.78;43.47
35694;BME280;21812;55.536;37.664;2023-04-06T09:41:30;100464.56;;;13.88;43.31
35694;BME280;21812;55.536;37.664;2023-04-06T09:44:03;100469.69;;;14.12;42.84
35694;BME280;21812;55.536;37.664;2023-04-06T09:46:32;100463.16;;;14.21;43.03
35694;BME280;21812;55.536;37.664;2023-04-06T09:49:01;100461.91;;;14.23;41.67
35694;BME280;21812;55.536;37.664;2023-04-06T09:51:30;100435.88;;;14.24;43.06
35694;BME280;21812;55.536;37.664;2023-04-06T09:53:57;100460.13;;;14.59;42.80
35694;BME280;21812;55.536;37.664;2023-04-06T09:56:28;100457.31;;;14.80;42.25
35694;BME280;21812;55.536;37.664;2023-04-06T09:59:02;100456.56;;;14.93;41.68
35694;BME280;21812;55.536;37.664;2023-04-06T10:01:30;100423.47;;;14.93;40.90
35694;BME280;21812;55.536;37.664;2023-04-06T10:06:55;100444.47;;;15.31;40.68
35694;BME280;21812;55.536;37.664;2023-04-06T10:09:24;100440.16;;;15.56;40.04
35694;BME280;21812;55.536;37.664;2023-04-06T10:11:51;100448.50;;;15.88;39.42
35694;BME280;21812;55.536;37.664;2023-04-06T10:14:17;100447.03;;;16.19;38.63
35694;BME280;21812;55.536;37.664;2023-04-06T10:16:43;100437.22;;;16.45;38.20
35694;BME280;21812;55.536;37.664;2023-04-06T10:19:17;100422.28;;;16.62;38.45
35694;BME280;21812;55.536;37.664;2023-04-06T10:21:45;100413.25;;;16.88;37.12
35694;BME280;21812;55.536;37.664;2023-04-06T10:24:14;100439.31;;;17.46;36.73
35694;BME280;21812;55.536;37.664;2023-04-06T10:26:39;100442.84;;;17.72;37.18
35694;BME280;21812;55.536;37.664;2023-04-06T10:29:05;100433.03;;;18.09;35.65
35694;BME280;21812;55.536;37.664;2023-04-06T10:31:32;100437.19;;;18.30;35.33
35694;BME280;21812;55.536;37.664;2023-04-06T10:34:00;100414.50;;;18.31;34.81
35694;BME280;21812;55.536;37.664;2023-04-06T10:36:32;100399.19;;;18.62;34.74
35694;BME280;21812;55.536;37.664;2023-04-06T10:39:00;100408.16;;;19.11;34.31
35694;BME280;21812;55.536;37.664;2023-04-06T10:41:41;100420.63;;;19.54;33.17
35694;BME280;21812;55.536;37.664;2023-04-06T10:44:06;100413.22;;;19.62;32.16
35694;BME280;21812;55.536;37.664;2023-04-06T10:46:33;100418.91;;;19.72;31.81
35694;BME280;21812;55.536;37.664;2023-04-06T10:49:19;100420.50;;;19.91;31.12
35694;BME280;21812;55.536;37.664;2023-04-06T10:51:51;100411.41;;;20.21;30.77
35694;BME280;21812;55.536;37.664;2023-04-06T10:54:17;100413.72;;;20.53;30.06
35694;BME280;21812;55.536;37.664;2023-04-06T10:56:44;100408.19;;;21.00;29.07
35694;BME280;21812;55.536;37.664;2023-04-06T10:59:09;100404.00;;;21.38;29.05
35694;BME280;21812;55.536;37.664;2023-04-06T11:01:36;100404.69;;;21.79;29.02
35694;BME280;21812;55.536;37.664;2023-04-06T11:04:01;100400.72;;;22.04;27.81
35694;BME280;21812;55.536;37.664;2023-04-06T11:06:29;100412.56;;;22.32;27.81
35694;BME280;21812;55.536;37.664;2023-04-06T11:08:57;100409.22;;;22.69;26.82
35694;BME280;21812;55.536;37.664;2023-04-06T11:11:24;100388.50;;;23.12;26.23
35694;BME280;21812;55.536;37.664;2023-04-06T11:13:53;100394.84;;;23.50;26.06
35694;BME280;21812;55.536;37.664;2023-04-06T11:21:14;100406.44;;;23.67;25.58
35694;BME280;21812;55.536;37.664;2023-04-06T11:23:40;100392.53;;;24.01;24.72
35694;BME280;21812;55.536;37.664;2023-04-06T11:26:10;100369.84;;;24.43;23.59
35694;BME280;21812;55.536;37.664;2023-04-06T11:28:36;100393.16;;;24.66;23.40
35694;BME280;21812;55.536;37.664;2023-04-06T11:31:02;100394.59;;;25.00;22.85
35694;BME280;21812;55.536;37.664;2023-04-06T11:33:28;100391.44;;;25.39;22.60
35694;BME280;21812;55.536;37.664;2023-04-06T11:35:57;100372.56;;;25.78;22.43
35694;BME280;21812;55.536;37.664;2023-04-06T11:38:23;100389.06;;;26.53;21.66
35694;BME280;21812;55.536;37.664;2023-04-06T11:40:53;100363.84;;;26.57;21.82
35694;BME280;21812;55.536;37.664;2023-04-06T11:43:29;100391.38;;;26.91;20.66
35694;BME280;21812;55.536;37.664;2023-04-06T11:46:02;100394.94;;;26.91;20.53
35694;BME280;21812;55.536;37.664;2023-04-06T11:48:30;100383.22;;;27.20;20.24
35694;BME280;21812;55.536;37.664;2023-04-06T11:50:58;100385.88;;;27.36;20.37
35694;BME280;21812;55.536;37.664;2023-04-06T11:53:27;100384.38;;;27.54;19.68
35694;BME280;21812;55.536;37.664;2023-04-06T11:55:53;100381.34;;;28.14;19.09
35694;BME280;21812;55.536;37.664;2023-04-06T11:58:19;100379.25;;;28.05;19.55
35694;BME280;21812;55.536;37.664;2023-04-06T12:00:44;100372.50;;;28.22;19.27
35694;BME280;21812;55.536;37.664;2023-04-06T12:03:14;100364.81;;;29.24;21.07
35694;BME280;21812;55.536;37.664;2023-04-06T12:05:39;100364.00;;;30.31;19.91
35694;BME280;21812;55.536;37.664;2023-04-06T12:08:05;100358.31;;;30.55;19.58
35694;BME280;21812;55.536;37.664;2023-04-06T12:10:31;100363.16;;;30.72;19.28
35694;BME280;21812;55.536;37.664;2023-04-06T12:12:57;100362.06;;;30.59;18.94
35694;BME280;21812;55.536;37.664;2023-04-06T12:15:22;100373.97;;;30.82;19.51
35694;BME280;21812;55.536;37.664;2023-04-06T12:17:48;100360.81;;;31.15;20.21
35694;BME280;21812;55.536;37.664;2023-04-06T12:20:15;100370.53;;;31.35;20.10
35694;BME280;21812;55.536;37.664;2023-04-06T12:22:41;100365.81;;;31.59;20.36
35694;BME280;21812;55.536;37.664;2023-04-06T12:25:06;100365.78;;;31.81;19.71
35694;BME280;21812;55.536;37.664;2023-04-06T12:27:33;100372.03;;;31.95;19.55
35694;BME280;21812;55.536;37.664;2023-04-06T12:29:58;100365.06;;;31.98;18.85
35694;BME280;21812;55.536;37.664;2023-04-06T12:32:24;100360.19;;;31.95;19.19
35694;BME280;21812;55.536;37.664;2023-04-06T12:34:53;100362.78;;;31.91;19.02
35694;BME280;21812;55.536;37.664;2023-04-06T12:37:19;100367.88;;;31.75;16.38
35694;BME280;21812;55.536;37.664;2023-04-06T12:39:45;100366.63;;;30.77;16.58
35694;BME280;21812;55.536;37.664;2023-04-06T12:42:11;100365.97;;;30.44;16.15
35694;BME280;21812;55.536;37.664;2023-04-06T12:44:38;100359.94;;;30.28;17.29
35694;BME280;21812;55.536;37.664;2023-04-06T12:47:06;100360.66;;;30.20;17.45
35694;BME280;21812;55.536;37.664;2023-04-06T12:49:32;100366.66;;;29.94;16.69
35694;BME280;21812;55.536;37.664;2023-04-06T12:51:58;100365.47;;;30.42;17.58
35694;BME280;21812;55.536;37.664;2023-04-06T12:54:24;100369.22;;;31.10;15.79
35694;BME280;21812;55.536;37.664;2023-04-06T12:56:52;100362.94;;;31.18;16.70